Main page
METAR-TAF:

METAR-TAF

Airports :

Albert – Picardie Airport

Albert, France

latitude: 49-58-21N, longitude: 002-41-29E, elevation: 111 m

Current weather observation

The report was made 26 minutes ago, at 22:30 UTC
Wind 9 kt from the South/Southeast
Temperature 6°C
Humidity 100%
Pressure 1002 hPa
Visibility 10 km or more
Few clouds at a height of 1700 ft
Scattered clouds at a height of 4800 ft
Broken clouds at a height of 5400 ft

METAR: LFAQ 212230Z AUTO 15009KT 9999 FEW017 SCT048 BKN054 06/06 Q1002

Time: 23:56 (22:56 UTC)

Forecast

The report was made 8 hours and 56 minutes ago, at 14:00 UTC
Forecast valid from 21 at 15 UTC to 21 at 24 UTC
Wind 12 kt from the Southeast
Visibility: 9000 m
Becoming
from 21 at 18 UTC to 21 at 20 UTC
Broken clouds at a height of 800 ft
Overcast at a height of 3000 ft
Temporary
from 21 at 20 UTC to 21 at 24 UTC
Visibility: 3000 m
Overcast at a height of 300 ft
rain

TAF: LFAQ 211400Z 2115/2124 13012KT 9000 NSC BECMG 2118/2120 BKN008 OVC030 TEMPO 2120/2124 3000 RA OVC003

Weather observations and forecasts of more than 4000 airports (METAR and TAF reports).

The available stations are represented by yellow and red dots on the map.

Hover mouse over dot to see the name of the station.

Then click to see weather observations and forecasts.

To change the map : click on the green buttons with a black cross to zoom in, on the green button with a dash to zoom out, or on the green arrows for adjacent maps.


METAR-TAF: